Time;durP1;ratioP1;P1;durP2;ratioP2;P2;SDS_P1;SDS_P2;PMS_P1;PMS_P2;Temp;Humidity;BMP_temperature;BMP_pressure;BME280_temperature;BME280_humidity;BME280_pressure;Samples;Min_cycle;Max_cycle;Signal;HPM_P1;HPM_P2
2022/07/30 00:02:08;;;;;;;3.50;2.72;;;;;;;22.08;100.00;100534.69;4824329;29;20499;-72
2022/07/30 00:04:36;;;;;;;5.32;2.80;;;;;;;22.04;99.24;100528.19;4824453;29;20397;-72
2022/07/30 00:07:04;;;;;;;2.67;2.47;;;;;;;22.07;98.19;100519.13;4824171;29;20510;-73
2022/07/30 00:09:32;;;;;;;3.10;2.80;;;;;;;22.05;96.79;100523.44;4824020;29;20414;-73
2022/07/30 00:12:03;;;;;;;4.05;2.60;;;;;;;22.02;97.24;100523.00;4824376;29;20498;-73
2022/07/30 00:14:33;;;;;;;3.20;2.88;;;;;;;22.00;100.00;100514.19;4823723;29;20062;-72
2022/07/30 00:17:03;;;;;;;3.33;2.60;;;;;;;21.96;99.70;100513.31;4823817;29;20455;-72
2022/07/30 00:19:32;;;;;;;3.38;3.05;;;;;;;21.91;98.01;100513.56;4824330;29;20070;-72
2022/07/30 00:22:02;;;;;;;3.13;2.58;;;;;;;21.94;96.94;100515.63;4823048;29;20070;-72
2022/07/30 00:24:30;;;;;;;3.05;2.42;;;;;;;22.00;94.92;100511.41;4823561;29;20053;-72
2022/07/30 00:26:57;;;;;;;3.00;2.63;;;;;;;22.00;96.67;100505.81;4824157;29;20065;-72
2022/07/30 00:29:26;;;;;;;2.75;2.50;;;;;;;21.95;94.93;100516.44;4823698;29;20050;-72
2022/07/30 00:31:55;;;;;;;3.13;2.50;;;;;;;21.99;94.52;100509.78;4822867;29;20062;-72
2022/07/30 00:34:23;;;;;;;3.35;2.75;;;;;;;21.99;94.67;100512.56;4822036;29;20058;-72
2022/07/30 00:36:51;;;;;;;2.67;2.47;;;;;;;21.99;94.41;100508.97;4823769;29;20054;-72
2022/07/30 00:39:19;;;;;;;2.88;2.40;;;;;;;22.06;94.71;100509.16;4823569;29;20054;-72
2022/07/30 00:42:13;;;;;;;5.40;2.83;;;;;;;22.17;93.23;100508.59;4822252;29;20059;-72
2022/07/30 00:44:41;;;;;;;4.72;2.10;;;;;;;22.10;93.60;100520.38;4800751;29;20058;-72
2022/07/30 00:47:09;;;;;;;3.33;2.35;;;;;;;22.19;95.36;100515.41;4823391;29;20055;-72
2022/07/30 00:49:37;;;;;;;5.15;2.70;;;;;;;22.18;95.42;100513.81;4822678;29;20062;-72
2022/07/30 00:52:10;;;;;;;2.95;2.22;;;;;;;22.15;94.84;100517.34;4823336;29;20054;-72
2022/07/30 00:54:40;;;;;;;2.92;2.72;;;;;;;22.04;96.29;100510.69;4821825;29;20494;-72
2022/07/30 00:57:07;;;;;;;3.00;2.78;;;;;;;22.21;96.93;100515.06;4823667;29;20054;-72
2022/07/30 00:59:35;;;;;;;4.57;3.42;;;;;;;22.12;97.14;100518.03;4821872;29;20054;-72
2022/07/30 01:02:03;;;;;;;3.60;3.08;;;;;;;22.10;96.68;100523.19;4822414;29;20065;-72
2022/07/30 01:04:31;;;;;;;4.15;2.80;;;;;;;22.05;96.60;100520.66;4823550;29;20058;-72
2022/07/30 01:06:59;;;;;;;3.55;2.80;;;;;;;22.11;95.84;100524.78;4822879;29;20046;-72
2022/07/30 01:09:28;;;;;;;4.90;3.00;;;;;;;22.14;95.88;100526.88;4822408;29;20058;-72
2022/07/30 01:11:57;;;;;;;5.50;3.00;;;;;;;22.13;93.67;100519.66;4821859;29;20061;-72
2022/07/30 01:14:25;;;;;;;2.85;2.40;;;;;;;22.31;91.60;100528.44;4822892;29;20051;-73
2022/07/30 01:16:53;;;;;;;2.70;2.28;;;;;;;22.51;89.79;100526.53;4823197;29;20065;-72
2022/07/30 01:22:13;;;;;;;2.40;2.20;;;;;;;22.45;88.98;100525.19;4825406;29;20050;-72
2022/07/30 01:24:55;;;;;;;6.32;1.98;;;;;;;22.15;89.72;100523.69;4822967;29;20054;-73
2022/07/30 01:27:27;;;;;;;2.80;2.22;;;;;;;22.05;90.53;100523.44;4836715;29;20410;-72
2022/07/30 01:29:58;;;;;;;2.25;2.05;;;;;;;21.88;92.48;100523.44;4823275;29;20065;-73
2022/07/30 01:32:27;;;;;;;5.20;2.50;;;;;;;21.95;91.50;100528.38;4822441;29;20069;-72
2022/07/30 01:34:57;;;;;;;2.05;1.92;;;;;;;21.91;92.70;100526.69;4820490;29;20055;-73
2022/07/30 01:37:27;;;;;;;3.25;1.95;;;;;;;21.88;91.81;100514.28;4836831;29;20055;-72
2022/07/30 01:39:55;;;;;;;2.80;2.35;;;;;;;21.77;90.91;100519.59;4821838;29;20402;-73
2022/07/30 01:42:27;;;;;;;2.60;2.00;;;;;;;21.77;91.92;100524.31;4822515;29;20058;-72
2022/07/30 01:44:57;;;;;;;2.35;2.15;;;;;;;21.90;92.03;100531.47;4820400;29;20406;-72
2022/07/30 01:47:27;;;;;;;3.33;2.00;;;;;;;21.82;92.55;100524.06;4840342;29;20050;-73
2022/07/30 01:49:57;;;;;;;2.50;2.30;;;;;;;21.58;92.59;100507.13;4819847;29;20059;-73
2022/07/30 01:52:29;;;;;;;1.98;1.88;;;;;;;21.53;93.29;100514.94;4820959;29;20061;-75
2022/07/30 01:54:59;;;;;;;3.53;1.98;;;;;;;21.57;92.79;100511.09;4811711;29;20853;-75
2022/07/30 01:57:29;;;;;;;3.13;2.20;;;;;;;21.51;91.96;100511.69;4823129;29;20054;-75
